Time;durP1;ratioP1;P1;durP2;ratioP2;P2;SDS_P1;SDS_P2;PMS_P1;PMS_P2;Temp;Humidity;BMP_temperature;BMP_pressure;BME280_temperature;BME280_humidity;BME280_pressure;Samples;Min_cycle;Max_cycle;Signal;HPM_P1;HPM_P2
2021/11/21 00:00:48;;;;;;;;;;;12.50;74.60;;;;;;21001342;27;76041;-76
2021/11/21 00:10:50;;;;;;;;;;;12.50;74.70;;;;;;20982615;27;76828;-77
2021/11/21 00:20:52;;;;;;;;;;;12.50;74.70;;;;;;20999609;27;76667;-76
2021/11/21 00:30:54;;;;;;;;;;;12.50;75.00;;;;;;21013809;27;77267;-74
2021/11/21 00:40:56;;;;;;;;;;;12.50;75.00;;;;;;21066227;27;77127;-81
2021/11/21 00:51:01;;;;;;;;;;;12.50;74.70;;;;;;21083032;27;77525;-81
2021/11/21 01:01:05;;;;;;;;;;;12.50;74.40;;;;;;21064407;27;77062;-79
2021/11/21 01:11:08;;;;;;;;;;;12.50;74.50;;;;;;21081379;27;75754;-79
2021/11/21 01:21:10;;;;;;;;;;;12.40;74.30;;;;;;21080210;27;76134;-77
2021/11/21 01:31:13;;;;;;;;;;;12.50;74.50;;;;;;21080153;27;76708;-75
2021/11/21 01:41:15;;;;;;;;;;;12.50;75.00;;;;;;21078935;27;76686;-79
2021/11/21 01:51:18;;;;;;;;;;;12.50;75.10;;;;;;21061276;27;75566;-76
2021/11/21 02:01:21;;;;;;;;;;;12.50;74.70;;;;;;21077906;27;76175;-75
2021/11/21 02:11:24;;;;;;;;;;;12.50;74.60;;;;;;21077097;27;74805;-75
2021/11/21 02:21:30;;;;;;;;;;;12.50;74.30;;;;;;21076440;27;77101;-75
2021/11/21 02:31:39;;;;;;;;;;;12.50;74.60;;;;;;21075317;27;75584;-78
2021/11/21 02:41:43;;;;;;;;;;;12.30;74.30;;;;;;21075622;27;76084;-75
2021/11/21 02:51:49;;;;;;;;;;;12.30;74.60;;;;;;21075297;27;76966;-75
2021/11/21 03:01:56;;;;;;;;;;;12.20;74.90;;;;;;21058346;27;76807;-81
2021/11/21 03:12:04;;;;;;;;;;;12.10;74.90;;;;;;21064171;27;74736;-80
2021/11/21 03:22:12;;;;;;;;;;;12.10;75.00;;;;;;21071406;27;77080;-77
2021/11/21 03:32:20;;;;;;;;;;;12.10;75.10;;;;;;21071161;27;75794;-77
2021/11/21 03:42:28;;;;;;;;;;;12.10;75.20;;;;;;21086680;27;76719;-76
2021/11/21 03:52:34;;;;;;;;;;;12.00;75.20;;;;;;21085934;27;76811;-78
2021/11/21 04:02:56;;;;;;;;;;;12.00;75.50;;;;;;21085407;27;78396;-77
2021/11/21 04:13:18;;;;;;;;;;;11.90;75.70;;;;;;21084166;27;77476;-75
2021/11/21 04:23:39;;;;;;;;;;;11.80;76.00;;;;;;21069164;27;77711;-73
2021/11/21 04:33:58;;;;;;;;;;;11.70;76.20;;;;;;21067297;27;76711;-78
2021/11/21 04:44:08;;;;;;;;;;;11.50;76.90;;;;;;21065198;27;76074;-79
2021/11/21 04:54:22;;;;;;;;;;;11.40;77.30;;;;;;21065016;27;76919;-76
2021/11/21 05:04:35;;;;;;;;;;;11.30;77.80;;;;;;21081692;27;76092;-77
2021/11/21 05:14:45;;;;;;;;;;;11.40;77.60;;;;;;21002581;27;77147;-77
2021/11/21 05:24:59;;;;;;;;;;;11.50;77.50;;;;;;20910572;28;76799;-76
2021/11/21 05:35:07;;;;;;;;;;;11.60;77.30;;;;;;20962573;27;75742;-75
2021/11/21 05:45:15;;;;;;;;;;;11.60;77.20;;;;;;20994638;27;75685;-77
2021/11/21 05:55:21;;;;;;;;;;;11.70;77.40;;;;;;20993143;27;76739;-75
2021/11/21 06:05:25;;;;;;;;;;;11.70;77.20;;;;;;20991881;27;75759;-77
2021/11/21 06:15:27;;;;;;;;;;;11.50;77.40;;;;;;20991387;27;76082;-78
2021/11/21 06:25:28;;;;;;;;;;;11.30;77.60;;;;;;20990779;27;75737;-76
2021/11/21 06:35:31;;;;;;;;;;;11.30;78.10;;;;;;20913748;27;76019;-75
2021/11/21 06:45:32;;;;;;;;;;;11.30;78.30;;;;;;20903489;28;75132;-75
2021/11/21 06:55:34;;;;;;;;;;;11.40;78.30;;;;;;20904078;28;75852;-75
2021/11/21 07:05:36;;;;;;;;;;;11.40;78.20;;;;;;20904934;27;75801;-75
2021/11/21 07:15:39;;;;;;;;;;;11.40;78.00;;;;;;20885210;28;77176;-75
2021/11/21 07:25:41;;;;;;;;;;;11.40;77.80;;;;;;20885793;28;75923;-76
2021/11/21 07:35:44;;;;;;;;;;;11.50;77.80;;;;;;20945162;27;76510;-74
2021/11/21 07:45:46;;;;;;;;;;;11.50;77.70;;;;;;20986729;27;75704;-75
2021/11/21 07:55:48;;;;;;;;;;;11.40;77.80;;;;;;20974265;27;76763;-74
2021/11/21 08:05:52;;;;;;;;;;;11.40;78.10;;;;;;21002467;27;74803;-71
2021/11/21 08:15:54;;;;;;;;;;;11.40;78.00;;;;;;20982890;27;74890;-73
2021/11/21 08:25:57;;;;;;;;;;;11.50;77.80;;;;;;20976867;27;76038;-71
2021/11/21 08:35:59;;;;;;;;;;;11.70;77.40;;;;;;21001029;27;75416;-69
2021/11/21 08:46:01;;;;;;;;;;;12.10;76.30;;;;;;20980793;27;76581;-73
2021/11/21 08:56:05;;;;;;;;;;;12.50;74.70;;;;;;20980432;27;75910;-72
2021/11/21 09:06:10;;;;;;;;;;;12.70;74.30;;;;;;20996907;27;75942;-76
2021/11/21 09:16:15;;;;;;;;;;;13.30;72.90;;;;;;20979421;27;75434;-70
2021/11/21 09:26:18;;;;;;;;;;;14.20;70.40;;;;;;20996380;27;74568;-64
2021/11/21 09:36:20;;;;;;;;;;;14.90;68.20;;;;;;20995703;27;76756;-64
2021/11/21 09:46:25;;;;;;;;;;;15.90;65.70;;;;;;20918840;27;76890;-64
2021/11/21 09:56:28;;;;;;;;;;;16.40;63.00;;;;;;20906731;28;75795;-65
2021/11/21 10:06:35;;;;;;;;;;;16.50;62.40;;;;;;20888487;28;75741;-63
2021/11/21 10:16:38;;;;;;;;;;;16.80;61.40;;;;;;20882946;27;74935;-63
2021/11/21 10:26:41;;;;;;;;;;;17.50;58.60;;;;;;20903120;28;75446;-63
2021/11/21 10:36:43;;;;;;;;;;;18.20;55.00;;;;;;20895098;27;76887;-62
2021/11/21 10:46:57;;;;;;;;;;;19.40;54.10;;;;;;20898402;27;76312;-61
2021/11/21 10:57:05;;;;;;;;;;;18.40;76.30;;;;;;20897258;28;76999;-58
2021/11/21 11:11:23;;;;;;;;;;;20.00;92.40;;;;;;20979289;27;74835;-73
2021/11/21 11:21:28;;;;;;;;;;;18.20;73.20;;;;;;20977056;27;77063;-70
2021/11/21 11:31:32;;;;;;;;;;;17.10;71.40;;;;;;20976991;27;75754;-70
2021/11/21 11:41:35;;;;;;;;;;;16.60;70.80;;;;;;20976199;27;76741;-70
2021/11/21 11:51:37;;;;;;;;;;;16.30;68.10;;;;;;20974791;27;75939;-71
2021/11/21 12:01:42;;;;;;;;;;;15.80;70.00;;;;;;20972556;27;76780;-71
2021/11/21 12:12:02;;;;;;;;;;;15.80;68.50;;;;;;20970610;27;76799;-71
2021/11/21 12:22:26;;;;;;;;;;;16.40;66.40;;;;;;20917741;27;76859;-71
2021/11/21 12:32:28;;;;;;;;;;;17.40;61.40;;;;;;20914087;27;76795;-71
2021/11/21 12:42:30;;;;;;;;;;;18.50;59.30;;;;;;20913174;28;76855;-70
2021/11/21 12:52:32;;;;;;;;;;;19.60;53.10;;;;;;20902312;28;76158;-71
2021/11/21 13:02:34;;;;;;;;;;;20.00;53.50;;;;;;20907710;27;76969;-71
2021/11/21 13:12:37;;;;;;;;;;;21.00;49.20;;;;;;20902428;28;76830;-70
2021/11/21 13:22:49;;;;;;;;;;;21.30;48.80;;;;;;20903909;27;75712;-71
2021/11/21 13:32:52;;;;;;;;;;;20.50;48.00;;;;;;20907501;27;76809;-70
2021/11/21 13:43:06;;;;;;;;;;;20.20;50.80;;;;;;20827159;27;75959;-70
2021/11/21 13:53:08;;;;;;;;;;;20.70;49.80;;;;;;20823659;28;75810;-71
2021/11/21 14:03:17;;;;;;;;;;;19.50;49.40;;;;;;20819453;28;75745;-71
2021/11/21 14:13:20;;;;;;;;;;;18.40;53.20;;;;;;20823291;28;74762;-71
2021/11/21 14:23:28;;;;;;;;;;;18.20;53.50;;;;;;20823385;28;74488;-70
2021/11/21 14:33:33;;;;;;;;;;;18.00;55.30;;;;;;20824243;28;77060;-70
2021/11/21 14:43:41;;;;;;;;;;;17.80;55.80;;;;;;20821966;28;76873;-71
2021/11/21 14:53:46;;;;;;;;;;;17.90;54.40;;;;;;20822770;28;76725;-70
2021/11/21 15:03:50;;;;;;;;;;;17.80;54.00;;;;;;20822677;28;76739;-70
2021/11/21 15:13:52;;;;;;;;;;;17.60;55.00;;;;;;20820856;28;77234;-70
2021/11/21 15:23:55;;;;;;;;;;;17.00;56.90;;;;;;20819272;28;75707;-71
2021/11/21 15:33:56;;;;;;;;;;;16.20;58.10;;;;;;20821548;28;76942;-70
2021/11/21 15:43:59;;;;;;;;;;;15.60;59.40;;;;;;20821044;28;77150;-70
2021/11/21 15:54:01;;;;;;;;;;;15.20;60.50;;;;;;20828892;28;75685;-71
2021/11/21 16:04:03;;;;;;;;;;;14.90;61.60;;;;;;20854375;28;75752;-76
2021/11/21 16:14:05;;;;;;;;;;;14.70;62.50;;;;;;20833839;28;76992;-72
2021/11/21 16:24:06;;;;;;;;;;;14.40;63.30;;;;;;20826414;28;75614;-73
2021/11/21 16:34:08;;;;;;;;;;;14.00;64.90;;;;;;20821610;28;75954;-73
2021/11/21 16:44:14;;;;;;;;;;;13.80;66.20;;;;;;20830132;28;75570;-73
2021/11/21 16:54:15;;;;;;;;;;;13.50;67.20;;;;;;20831737;28;76008;-73
2021/11/21 17:04:17;;;;;;;;;;;13.40;67.90;;;;;;20831309;28;76850;-72
2021/11/21 17:14:24;;;;;;;;;;;13.30;68.80;;;;;;20830112;28;77070;-72
2021/11/21 17:24:28;;;;;;;;;;;13.00;69.80;;;;;;20828742;28;76841;-72
2021/11/21 17:34:31;;;;;;;;;;;12.80;70.60;;;;;;20827857;28;75779;-72
2021/11/21 17:44:32;;;;;;;;;;;12.60;71.70;;;;;;20827221;28;75985;-73
2021/11/21 17:54:35;;;;;;;;;;;12.40;72.20;;;;;;20825588;28;75517;-72
2021/11/21 18:04:38;;;;;;;;;;;12.20;72.90;;;;;;20824871;28;74684;-71
2021/11/21 18:14:42;;;;;;;;;;;11.90;73.60;;;;;;20823900;28;75817;-72
2021/11/21 18:24:46;;;;;;;;;;;11.80;75.00;;;;;;20826216;28;75582;-72
2021/11/21 18:34:52;;;;;;;;;;;11.60;75.70;;;;;;20824584;28;77127;-73
2021/11/21 18:44:54;;;;;;;;;;;11.50;76.20;;;;;;20823015;28;75412;-72
2021/11/21 18:54:55;;;;;;;;;;;11.40;76.50;;;;;;20824641;28;76795;-73
2021/11/21 19:04:57;;;;;;;;;;;11.20;77.30;;;;;;20822942;28;76881;-73
2021/11/21 19:14:59;;;;;;;;;;;11.00;78.30;;;;;;20823920;28;76514;-73
2021/11/21 19:25:00;;;;;;;;;;;10.90;78.80;;;;;;20825500;28;75567;-73
2021/11/21 19:35:03;;;;;;;;;;;10.80;79.70;;;;;;20837488;28;76907;-73
2021/11/21 19:45:07;;;;;;;;;;;10.60;79.50;;;;;;20836886;28;76569;-71
2021/11/21 19:55:09;;;;;;;;;;;10.40;80.00;;;;;;20835690;28;75610;-72
2021/11/21 20:05:11;;;;;;;;;;;10.30;80.50;;;;;;20841777;28;76339;-72
2021/11/21 20:15:13;;;;;;;;;;;10.20;80.90;;;;;;20899601;27;76750;-72
2021/11/21 20:25:20;;;;;;;;;;;10.10;81.60;;;;;;20868101;27;77070;-75
2021/11/21 20:35:21;;;;;;;;;;;10.00;81.90;;;;;;20892418;27;76813;-73
2021/11/21 20:45:22;;;;;;;;;;;9.90;82.20;;;;;;20904056;27;77150;-72
2021/11/21 20:55:24;;;;;;;;;;;9.90;82.40;;;;;;20891449;28;76167;-72
2021/11/21 21:05:25;;;;;;;;;;;9.90;82.80;;;;;;20876329;27;76830;-72
2021/11/21 21:15:26;;;;;;;;;;;9.80;83.10;;;;;;20844735;28;75713;-75
2021/11/21 21:25:28;;;;;;;;;;;9.70;83.20;;;;;;20862912;28;75638;-77
2021/11/21 21:35:32;;;;;;;;;;;9.60;83.40;;;;;;20874582;28;75659;-75
2021/11/21 21:45:34;;;;;;;;;;;9.50;83.70;;;;;;20905038;28;76050;-73
2021/11/21 21:55:38;;;;;;;;;;;9.40;83.80;;;;;;20907420;28;74672;-74
2021/11/21 22:05:40;;;;;;;;;;;9.40;84.10;;;;;;20907828;27;75583;-75
2021/11/21 22:15:42;;;;;;;;;;;9.40;84.20;;;;;;20907190;28;75349;-74
2021/11/21 22:25:44;;;;;;;;;;;9.40;84.70;;;;;;20906799;28;76165;-71
2021/11/21 22:35:47;;;;;;;;;;;9.40;84.40;;;;;;20870993;27;77030;-74
2021/11/21 22:45:49;;;;;;;;;;;9.20;84.60;;;;;;20822221;28;76066;-74
2021/11/21 22:55:50;;;;;;;;;;;8.90;84.60;;;;;;20834266;28;76948;-75
2021/11/21 23:05:52;;;;;;;;;;;8.80;84.60;;;;;;20858865;28;77045;-74
2021/11/21 23:15:53;;;;;;;;;;;8.70;84.60;;;;;;20887806;28;77371;-72
2021/11/21 23:25:56;;;;;;;;;;;8.60;84.70;;;;;;20904282;28;75635;-73
2021/11/21 23:35:57;;;;;;;;;;;8.60;84.90;;;;;;20885554;28;75736;-72
2021/11/21 23:45:59;;;;;;;;;;;8.60;85.10;;;;;;20884551;28;75531;-75
2021/11/21 23:56:01;;;;;;;;;;;8.60;85.30;;;;;;20884391;28;76915;-72
